Time;durP1;ratioP1;P1;durP2;ratioP2;P2;SDS_P1;SDS_P2;PMS_P1;PMS_P2;Temp;Humidity;BMP_temperature;BMP_pressure;BME280_temperature;BME280_humidity;BME280_pressure;Samples;Min_cycle;Max_cycle;Signal;HPM_P1;HPM_P2
2022/11/02 00:02:28;;;;;;;22.55;14.27;;;;;;;;;;10030094;28;20547;-68
2022/11/02 00:07:21;;;;;;;17.13;13.43;;;;;;;;;;10029844;28;20052;-68
2022/11/02 00:12:15;;;;;;;21.45;15.10;;;;;;;;;;10029063;28;20049;-68
2022/11/02 00:17:09;;;;;;;22.13;14.77;;;;;;;;;;10029177;28;20058;-68
2022/11/02 00:22:03;;;;;;;19.67;13.98;;;;;;;;;;10027697;28;20082;-67
2022/11/02 00:26:57;;;;;;;17.95;15.25;;;;;;;;;;10021674;28;20054;-68
2022/11/02 00:31:51;;;;;;;21.27;13.80;;;;;;;;;;10029236;28;20146;-67
2022/11/02 00:36:44;;;;;;;21.45;15.55;;;;;;;;;;10028929;28;20064;-67
2022/11/02 00:41:39;;;;;;;18.65;14.73;;;;;;;;;;10023066;28;20417;-68
2022/11/02 00:46:33;;;;;;;16.85;13.38;;;;;;;;;;10024474;28;20080;-68
2022/11/02 00:51:26;;;;;;;18.20;13.77;;;;;;;;;;10028067;28;20100;-68
2022/11/02 00:56:20;;;;;;;19.95;12.52;;;;;;;;;;10028056;28;20061;-68
2022/11/02 01:01:13;;;;;;;21.70;13.80;;;;;;;;;;10025915;28;20056;-68
2022/11/02 01:06:13;;;;;;;21.42;14.27;;;;;;;;;;10019978;28;20053;-68
2022/11/02 01:11:19;;;;;;;19.30;13.75;;;;;;;;;;10028232;28;20421;-69
2022/11/02 01:16:14;;;;;;;21.52;14.95;;;;;;;;;;10027212;28;20137;-69
2022/11/02 01:21:12;;;;;;;20.77;14.77;;;;;;;;;;10029037;28;20058;-68
2022/11/02 01:26:08;;;;;;;22.55;15.65;;;;;;;;;;10027437;28;20057;-68
2022/11/02 01:31:02;;;;;;;22.70;15.55;;;;;;;;;;10027045;28;20100;-68
2022/11/02 01:35:55;;;;;;;19.33;14.20;;;;;;;;;;10008766;28;20119;-68
2022/11/02 01:40:49;;;;;;;21.63;14.57;;;;;;;;;;10026085;28;20077;-68
2022/11/02 01:45:42;;;;;;;25.77;15.20;;;;;;;;;;10025300;28;20078;-68
2022/11/02 01:50:36;;;;;;;19.13;13.68;;;;;;;;;;10025067;28;20049;-68
2022/11/02 01:55:32;;;;;;;19.45;13.45;;;;;;;;;;10022962;28;20500;-68
2022/11/02 02:00:26;;;;;;;16.83;13.25;;;;;;;;;;10024682;28;20112;-68
2022/11/02 02:05:20;;;;;;;14.55;12.25;;;;;;;;;;10017149;28;20050;-67
2022/11/02 02:10:14;;;;;;;18.88;13.82;;;;;;;;;;10017885;28;20070;-68
2022/11/02 02:15:07;;;;;;;20.45;14.25;;;;;;;;;;10031518;28;20058;-68
2022/11/02 02:20:17;;;;;;;20.85;14.43;;;;;;;;;;10012854;28;20061;-68
2022/11/02 02:25:47;;;;;;;24.42;16.45;;;;;;;;;;10015122;28;20140;-67
2022/11/02 02:30:59;;;;;;;16.42;13.68;;;;;;;;;;10027778;28;20136;-67
2022/11/02 02:36:12;;;;;;;20.33;13.98;;;;;;;;;;10017928;28;20046;-67
2022/11/02 02:41:10;;;;;;;21.88;14.95;;;;;;;;;;10011991;28;20057;-68
2022/11/02 02:46:15;;;;;;;21.40;13.33;;;;;;;;;;10015416;28;20065;-67
2022/11/02 02:51:19;;;;;;;20.95;13.10;;;;;;;;;;10020412;28;20828;-68
2022/11/02 02:56:16;;;;;;;21.63;14.15;;;;;;;;;;10019619;28;20046;-68
2022/11/02 03:01:12;;;;;;;20.90;12.77;;;;;;;;;;10019490;28;20448;-68
2022/11/02 03:06:08;;;;;;;15.13;13.35;;;;;;;;;;10001627;28;20403;-68
2022/11/02 03:11:21;;;;;;;16.00;12.68;;;;;;;;;;10036013;28;20049;-67
2022/11/02 03:16:37;;;;;;;18.02;13.23;;;;;;;;;;10032619;28;20046;-68
2022/11/02 03:21:43;;;;;;;14.52;11.35;;;;;;;;;;10018172;28;20408;-68
2022/11/02 03:26:45;;;;;;;19.58;11.68;;;;;;;;;;10018013;28;20069;-68
2022/11/02 03:31:57;;;;;;;24.98;11.63;;;;;;;;;;10030989;28;20045;-70
2022/11/02 03:37:34;;;;;;;16.30;10.20;;;;;;;;;;10026807;28;20050;-67
2022/11/02 03:42:46;;;;;;;16.13;11.30;;;;;;;;;;9893338;28;20182;-67
2022/11/02 03:47:43;;;;;;;21.10;11.25;;;;;;;;;;10007047;28;20137;-67
2022/11/02 03:53:16;;;;;;;16.27;10.93;;;;;;;;;;10012396;28;20062;-68
2022/11/02 03:58:11;;;;;;;19.77;10.85;;;;;;;;;;10024295;28;20457;-67
2022/11/02 04:03:10;;;;;;;16.25;10.75;;;;;;;;;;10027394;28;20493;-68
2022/11/02 04:08:21;;;;;;;13.30;9.55;;;;;;;;;;10028390;28;20050;-67
2022/11/02 04:28:54;;;;;;;15.52;10.60;;;;;;;;;;10027466;28;20050;-68
2022/11/02 04:33:47;;;;;;;19.08;9.95;;;;;;;;;;10028093;28;20145;-68
2022/11/02 04:38:41;;;;;;;18.10;10.15;;;;;;;;;;10044373;28;20100;-68
2022/11/02 04:43:48;;;;;;;15.52;10.60;;;;;;;;;;10025200;28;20046;-68
2022/11/02 04:48:43;;;;;;;15.75;9.63;;;;;;;;;;10032187;28;20046;-68
2022/11/02 04:53:37;;;;;;;15.32;11.15;;;;;;;;;;10025125;28;20063;-68
2022/11/02 04:58:40;;;;;;;19.25;12.05;;;;;;;;;;10027628;28;20542;-68
2022/11/02 05:03:34;;;;;;;18.42;13.55;;;;;;;;;;10009943;28;20060;-67
2022/11/02 05:08:27;;;;;;;18.52;12.18;;;;;;;;;;10025685;28;20076;-68
2022/11/02 05:13:22;;;;;;;22.73;14.70;;;;;;;;;;10025817;28;20046;-68
2022/11/02 05:18:15;;;;;;;26.20;16.85;;;;;;;;;;10026145;28;20042;-68
2022/11/02 05:23:12;;;;;;;26.25;18.52;;;;;;;;;;10025674;28;20068;-68
2022/11/02 05:28:05;;;;;;;27.27;18.55;;;;;;;;;;10042010;28;20049;-68
2022/11/02 05:32:58;;;;;;;26.63;19.00;;;;;;;;;;10026643;28;20057;-67
2022/11/02 05:37:55;;;;;;;23.25;18.13;;;;;;;;;;10025234;28;20050;-67
2022/11/02 05:42:49;;;;;;;28.35;20.80;;;;;;;;;;10024478;28;20531;-67
2022/11/02 05:47:43;;;;;;;38.15;22.38;;;;;;;;;;10025409;28;20072;-68
2022/11/02 05:52:37;;;;;;;32.03;21.80;;;;;;;;;;10026659;28;20052;-68
2022/11/02 05:57:31;;;;;;;27.58;20.13;;;;;;;;;;10024221;28;20050;-69
2022/11/02 06:02:25;;;;;;;37.08;23.33;;;;;;;;;;10016071;28;20050;-67
2022/11/02 06:07:19;;;;;;;35.20;23.20;;;;;;;;;;10018069;28;20484;-68
2022/11/02 06:12:13;;;;;;;39.80;24.52;;;;;;;;;;10021224;28;20057;-68
2022/11/02 06:17:07;;;;;;;27.35;19.83;;;;;;;;;;10020442;28;20509;-68
2022/11/02 06:22:01;;;;;;;30.85;16.42;;;;;;;;;;10025160;28;20104;-68
2022/11/02 06:26:54;;;;;;;23.48;16.13;;;;;;;;;;10024558;28;20050;-67
2022/11/02 06:31:48;;;;;;;25.38;17.83;;;;;;;;;;10039689;28;20141;-67
2022/11/02 06:36:41;;;;;;;27.98;16.00;;;;;;;;;;10026708;28;20046;-68
2022/11/02 06:41:35;;;;;;;24.25;15.00;;;;;;;;;;10017655;28;20042;-68
2022/11/02 06:46:28;;;;;;;19.00;13.77;;;;;;;;;;10025212;28;20049;-68
2022/11/02 06:51:21;;;;;;;35.00;24.20;;;;;;;;;;10012666;28;20404;-67
2022/11/02 06:56:15;;;;;;;48.90;24.17;;;;;;;;;;10028692;28;20133;-68
2022/11/02 07:01:09;;;;;;;36.72;24.45;;;;;;;;;;10020531;28;20492;-68
2022/11/02 07:06:02;;;;;;;45.88;27.08;;;;;;;;;;10027689;28;20092;-68
2022/11/02 07:10:55;;;;;;;41.63;29.13;;;;;;;;;;10030887;28;20548;-69
2022/11/02 07:15:53;;;;;;;49.55;27.42;;;;;;;;;;10024039;28;20069;-67
2022/11/02 07:20:47;;;;;;;31.85;21.13;;;;;;;;;;10019559;28;20088;-67
2022/11/02 07:25:40;;;;;;;32.72;22.13;;;;;;;;;;10029175;28;20054;-67
2022/11/02 07:30:34;;;;;;;29.60;20.05;;;;;;;;;;10020509;28;20049;-66
2022/11/02 07:35:28;;;;;;;30.00;16.08;;;;;;;;;;10029461;28;20103;-68
2022/11/02 07:40:21;;;;;;;25.23;15.57;;;;;;;;;;10029106;28;20073;-67
2022/11/02 07:45:14;;;;;;;20.30;14.98;;;;;;;;;;10027592;28;20062;-67
2022/11/02 07:50:08;;;;;;;20.60;13.80;;;;;;;;;;10028322;28;20050;-67
2022/11/02 07:55:02;;;;;;;18.65;13.25;;;;;;;;;;10029400;28;20503;-69
2022/11/02 07:59:55;;;;;;;23.00;13.75;;;;;;;;;;10028872;28;20057;-69
2022/11/02 08:04:49;;;;;;;16.70;13.35;;;;;;;;;;10026747;28;20085;-68
2022/11/02 08:09:42;;;;;;;27.25;14.93;;;;;;;;;;10023740;28;20054;-68
2022/11/02 08:14:36;;;;;;;25.02;14.27;;;;;;;;;;10026397;28;20133;-70
2022/11/02 08:19:30;;;;;;;18.52;13.32;;;;;;;;;;10027153;28;20050;-68
2022/11/02 08:24:23;;;;;;;15.52;14.02;;;;;;;;;;10028043;28;20493;-69
2022/11/02 08:29:17;;;;;;;19.27;13.88;;;;;;;;;;10027801;28;20077;-69
2022/11/02 08:34:12;;;;;;;23.80;13.65;;;;;;;;;;10025176;28;20057;-68
2022/11/02 08:39:05;;;;;;;28.27;19.88;;;;;;;;;;10027791;28;20461;-68
2022/11/02 08:44:00;;;;;;;31.70;20.08;;;;;;;;;;10026083;28;20054;-68
2022/11/02 08:48:54;;;;;;;25.13;20.05;;;;;;;;;;10027780;28;20080;-68
2022/11/02 08:53:47;;;;;;;28.95;15.05;;;;;;;;;;10026304;28;21168;-68
2022/11/02 08:58:43;;;;;;;17.92;13.43;;;;;;;;;;10028096;28;20485;-69
2022/11/02 09:03:37;;;;;;;16.63;13.05;;;;;;;;;;10026434;28;20053;-69
2022/11/02 09:08:30;;;;;;;17.55;12.68;;;;;;;;;;10026321;28;20049;-67
2022/11/02 09:13:24;;;;;;;21.75;13.35;;;;;;;;;;10026715;28;20061;-68
2022/11/02 09:18:17;;;;;;;16.95;12.98;;;;;;;;;;10026791;28;20449;-68
2022/11/02 09:23:12;;;;;;;21.92;13.98;;;;;;;;;;10025221;28;20420;-68
2022/11/02 09:28:06;;;;;;;28.38;17.20;;;;;;;;;;10025180;28;20054;-69
2022/11/02 09:33:01;;;;;;;22.45;15.55;;;;;;;;;;10024341;28;20558;-68
2022/11/02 09:37:55;;;;;;;20.30;14.88;;;;;;;;;;10024441;28;20532;-68
2022/11/02 09:43:07;;;;;;;19.35;14.95;;;;;;;;;;10025011;28;20497;-69
2022/11/02 09:48:13;;;;;;;19.13;14.30;;;;;;;;;;10025192;28;20046;-68
2022/11/02 09:53:26;;;;;;;21.20;16.63;;;;;;;;;;10024557;28;20504;-68
2022/11/02 09:58:31;;;;;;;19.83;15.15;;;;;;;;;;10023893;28;20077;-68
2022/11/02 10:03:49;;;;;;;25.35;15.48;;;;;;;;;;10022430;28;20069;-68
2022/11/02 10:09:00;;;;;;;21.75;16.58;;;;;;;;;;10023248;28;20147;-68
2022/11/02 10:14:02;;;;;;;28.15;18.38;;;;;;;;;;10018393;28;20046;-68
2022/11/02 10:18:56;;;;;;;37.78;18.50;;;;;;;;;;10019605;28;20053;-68
2022/11/02 10:23:52;;;;;;;25.75;16.77;;;;;;;;;;10022362;28;20108;-68
2022/11/02 10:28:49;;;;;;;26.65;17.15;;;;;;;;;;10024504;28;20089;-68
2022/11/02 10:33:42;;;;;;;26.70;18.50;;;;;;;;;;10024721;28;20061;-68
2022/11/02 10:38:57;;;;;;;21.52;19.10;;;;;;;;;;10021915;28;20053;-66
2022/11/02 10:44:09;;;;;;;23.05;17.25;;;;;;;;;;10021842;28;20509;-66
2022/11/02 10:49:13;;;;;;;29.35;20.40;;;;;;;;;;10022401;28;20528;-66
2022/11/02 10:54:13;;;;;;;25.40;19.45;;;;;;;;;;10019492;28;20088;-68
2022/11/02 10:59:22;;;;;;;22.20;18.95;;;;;;;;;;10020498;28;20128;-70
2022/11/02 11:04:22;;;;;;;28.98;18.13;;;;;;;;;;10022236;28;20046;-70
2022/11/02 11:09:30;;;;;;;32.65;19.48;;;;;;;;;;10026582;28;20045;-69
2022/11/02 11:14:24;;;;;;;29.17;19.58;;;;;;;;;;10026366;28;20053;-69
2022/11/02 11:19:51;;;;;;;27.88;18.48;;;;;;;;;;10026496;28;20078;-69
2022/11/02 11:24:44;;;;;;;26.73;19.33;;;;;;;;;;10025800;28;20064;-69
2022/11/02 11:29:44;;;;;;;28.13;20.77;;;;;;;;;;10031024;28;20493;-69
2022/11/02 11:34:38;;;;;;;28.52;21.00;;;;;;;;;;10028646;28;20609;-69
2022/11/02 11:39:32;;;;;;;23.40;19.60;;;;;;;;;;10028855;28;20547;-69
2022/11/02 11:44:26;;;;;;;24.85;18.75;;;;;;;;;;10029675;28;20474;-69
2022/11/02 11:49:26;;;;;;;26.30;19.10;;;;;;;;;;10028519;28;20065;-69
2022/11/02 11:54:39;;;;;;;32.20;20.90;;;;;;;;;;10028913;28;20065;-69
2022/11/02 11:59:41;;;;;;;24.80;18.35;;;;;;;;;;10028499;28;20527;-69
2022/11/02 12:04:36;;;;;;;28.83;19.80;;;;;;;;;;10029337;28;20053;-69
2022/11/02 12:09:48;;;;;;;25.17;17.88;;;;;;;;;;10027599;28;20060;-67
2022/11/02 12:14:58;;;;;;;24.55;19.23;;;;;;;;;;10028287;28;20084;-68
2022/11/02 12:20:00;;;;;;;22.90;18.88;;;;;;;;;;10022865;28;20057;-68
2022/11/02 12:24:53;;;;;;;25.27;16.23;;;;;;;;;;10041437;28;20074;-68
2022/11/02 12:30:10;;;;;;;25.67;19.67;;;;;;;;;;10028715;28;20440;-69
2022/11/02 12:35:21;;;;;;;24.80;18.65;;;;;;;;;;10025475;28;20050;-68
2022/11/02 12:40:58;;;;;;;26.70;20.33;;;;;;;;;;10027752;28;20050;-68
2022/11/02 12:46:00;;;;;;;25.92;19.90;;;;;;;;;;10027219;28;20084;-68
2022/11/02 12:51:04;;;;;;;30.08;20.70;;;;;;;;;;10026037;28;20134;-68
2022/11/02 12:56:06;;;;;;;29.52;19.00;;;;;;;;;;10024731;28;20140;-68
2022/11/02 13:01:14;;;;;;;27.08;18.42;;;;;;;;;;10021789;28;20061;-68
2022/11/02 13:06:12;;;;;;;22.08;16.52;;;;;;;;;;10020911;28;20073;-69
2022/11/02 13:11:10;;;;;;;20.10;17.50;;;;;;;;;;10009051;28;20673;-68
2022/11/02 13:16:06;;;;;;;20.17;17.65;;;;;;;;;;10013470;28;20058;-69
2022/11/02 13:21:01;;;;;;;25.85;18.35;;;;;;;;;;10009924;28;20410;-69
2022/11/02 13:26:27;;;;;;;23.80;17.17;;;;;;;;;;10031533;28;20061;-67
2022/11/02 13:31:26;;;;;;;21.25;16.60;;;;;;;;;;10018375;28;20069;-69
2022/11/02 13:36:19;;;;;;;22.05;16.70;;;;;;;;;;10006909;28;20057;-68
2022/11/02 13:41:31;;;;;;;21.58;18.23;;;;;;;;;;10022323;28;20632;-69
2022/11/02 13:46:49;;;;;;;20.17;15.63;;;;;;;;;;10013287;28;20066;-66
2022/11/02 13:51:50;;;;;;;19.80;15.77;;;;;;;;;;10009030;28;20077;-68
2022/11/02 13:56:45;;;;;;;19.92;16.75;;;;;;;;;;10019999;28;20054;-68
2022/11/02 14:01:40;;;;;;;25.17;18.20;;;;;;;;;;10014920;28;20034;-66
2022/11/02 14:06:50;;;;;;;19.35;15.95;;;;;;;;;;10015920;28;20088;-65
2022/11/02 14:11:43;;;;;;;24.42;17.75;;;;;;;;;;10022090;28;20056;-67
2022/11/02 14:16:41;;;;;;;24.95;16.55;;;;;;;;;;10021637;28;20038;-67
2022/11/02 14:21:53;;;;;;;22.07;16.80;;;;;;;;;;10017963;28;20501;-66
2022/11/02 14:26:56;;;;;;;20.33;18.17;;;;;;;;;;10015541;28;20568;-65
2022/11/02 14:31:53;;;;;;;26.25;18.73;;;;;;;;;;10020240;28;20068;-65
2022/11/02 14:37:11;;;;;;;29.73;17.98;;;;;;;;;;10017493;28;20042;-65
2022/11/02 14:42:28;;;;;;;22.50;18.83;;;;;;;;;;10015597;28;20493;-67
2022/11/02 14:47:30;;;;;;;25.83;16.58;;;;;;;;;;10021658;28;20141;-67
2022/11/02 14:52:29;;;;;;;29.02;19.75;;;;;;;;;;10018228;28;20053;-66
2022/11/02 14:57:26;;;;;;;23.25;17.88;;;;;;;;;;10023614;28;20046;-66
2022/11/02 15:02:26;;;;;;;23.98;16.63;;;;;;;;;;10023643;28;20065;-66
2022/11/02 15:07:23;;;;;;;25.70;19.02;;;;;;;;;;10018884;28;20061;-66
2022/11/02 15:12:31;;;;;;;27.00;17.08;;;;;;;;;;10038031;28;20390;-66
2022/11/02 15:17:23;;;;;;;28.63;19.90;;;;;;;;;;10017580;28;20046;-66
2022/11/02 15:22:46;;;;;;;32.08;20.75;;;;;;;;;;10018284;28;20062;-65
2022/11/02 15:27:43;;;;;;;25.05;17.85;;;;;;;;;;10017488;28;20466;-66
2022/11/02 15:32:39;;;;;;;26.70;19.65;;;;;;;;;;10021314;28;20584;-67
2022/11/02 15:37:32;;;;;;;24.15;19.52;;;;;;;;;;10017172;28;20061;-69
2022/11/02 15:43:00;;;;;;;32.75;21.00;;;;;;;;;;10019553;28;20049;-67
2022/11/02 15:48:20;;;;;;;31.52;21.92;;;;;;;;;;10022384;28;20564;-68
2022/11/02 15:53:49;;;;;;;29.55;19.70;;;;;;;;;;10022779;28;20573;-67
2022/11/02 15:59:28;;;;;;;30.20;20.13;;;;;;;;;;9969500;28;20053;-66
2022/11/02 16:04:23;;;;;;;28.75;18.48;;;;;;;;;;9996112;28;20465;-67
2022/11/02 16:09:33;;;;;;;27.67;18.92;;;;;;;;;;10026808;28;20056;-67
2022/11/02 16:14:30;;;;;;;30.25;20.42;;;;;;;;;;10026856;28;20561;-66
2022/11/02 16:19:24;;;;;;;28.65;20.40;;;;;;;;;;10028411;28;20049;-67
2022/11/02 16:24:18;;;;;;;34.70;20.73;;;;;;;;;;10028444;28;20057;-67
2022/11/02 16:29:23;;;;;;;25.58;19.77;;;;;;;;;;10019576;28;20520;-67
2022/11/02 16:34:28;;;;;;;27.85;19.90;;;;;;;;;;10024475;28;20053;-68
2022/11/02 16:39:26;;;;;;;31.73;21.15;;;;;;;;;;10020038;28;20144;-67
2022/11/02 16:44:31;;;;;;;30.00;21.10;;;;;;;;;;10025300;28;20104;-67
2022/11/02 16:49:26;;;;;;;34.15;23.27;;;;;;;;;;10027403;28;20069;-67
2022/11/02 16:54:48;;;;;;;31.70;22.65;;;;;;;;;;10025104;28;20129;-67
2022/11/02 16:59:56;;;;;;;32.42;22.30;;;;;;;;;;10025289;28;20049;-66
2022/11/02 17:04:50;;;;;;;29.45;22.58;;;;;;;;;;10021435;28;20153;-66
2022/11/02 17:09:43;;;;;;;31.20;21.23;;;;;;;;;;10013006;28;20604;-66
2022/11/02 17:14:41;;;;;;;34.40;20.52;;;;;;;;;;10034805;28;20519;-66
2022/11/02 17:19:45;;;;;;;34.63;20.67;;;;;;;;;;10022643;28;20054;-67
2022/11/02 17:24:39;;;;;;;37.22;22.42;;;;;;;;;;10022578;28;20075;-67
2022/11/02 17:29:33;;;;;;;34.72;20.42;;;;;;;;;;10022677;28;20046;-67
2022/11/02 17:34:26;;;;;;;36.85;22.70;;;;;;;;;;10023003;28;20113;-67
2022/11/02 17:39:19;;;;;;;28.23;20.73;;;;;;;;;;10021823;28;20044;-67
2022/11/02 17:44:15;;;;;;;33.25;23.52;;;;;;;;;;10023151;28;20049;-67
2022/11/02 17:49:09;;;;;;;33.70;23.02;;;;;;;;;;10025191;28;20053;-68
2022/11/02 17:54:03;;;;;;;28.52;22.30;;;;;;;;;;10016305;28;20050;-67
2022/11/02 17:58:57;;;;;;;36.75;21.80;;;;;;;;;;10021982;28;20062;-67
2022/11/02 18:03:51;;;;;;;29.35;20.77;;;;;;;;;;10022148;28;20081;-68
2022/11/02 18:13:56;;;;;;;31.45;20.13;;;;;;;;;;10015449;28;20057;-66
2022/11/02 18:18:51;;;;;;;35.28;20.73;;;;;;;;;;10028169;28;20132;-67
2022/11/02 18:23:45;;;;;;;32.47;22.90;;;;;;;;;;10027397;28;20149;-67
2022/11/02 18:28:38;;;;;;;32.45;23.38;;;;;;;;;;10012529;28;20807;-67
2022/11/02 18:33:31;;;;;;;28.73;21.58;;;;;;;;;;10013574;28;20137;-67
2022/11/02 18:38:25;;;;;;;34.88;23.02;;;;;;;;;;10018396;28;20137;-67
2022/11/02 18:43:19;;;;;;;34.13;22.63;;;;;;;;;;10014117;28;20141;-67
2022/11/02 18:48:14;;;;;;;30.63;22.83;;;;;;;;;;10015131;28;20104;-67
2022/11/02 18:53:07;;;;;;;33.45;24.40;;;;;;;;;;10010374;28;20149;-66
2022/11/02 18:58:02;;;;;;;33.03;22.77;;;;;;;;;;10018573;28;20049;-65
2022/11/02 19:02:57;;;;;;;36.80;24.25;;;;;;;;;;10019016;28;20045;-67
2022/11/02 19:13:03;;;;;;;39.05;25.20;;;;;;;;;;10017168;28;20058;-68
2022/11/02 19:17:58;;;;;;;36.20;25.88;;;;;;;;;;10018106;28;20065;-68
2022/11/02 19:22:55;;;;;;;38.15;23.77;;;;;;;;;;10017065;28;20084;-67
2022/11/02 19:27:49;;;;;;;66.28;29.70;;;;;;;;;;10019258;28;20107;-67
2022/11/02 19:32:43;;;;;;;38.17;28.02;;;;;;;;;;10023959;28;20081;-67
2022/11/02 19:37:37;;;;;;;44.60;25.83;;;;;;;;;;10023697;28;20056;-67
2022/11/02 19:42:31;;;;;;;42.15;27.85;;;;;;;;;;10022491;28;20461;-67
2022/11/02 19:47:26;;;;;;;40.25;28.35;;;;;;;;;;10021644;28;20050;-65
2022/11/02 19:52:22;;;;;;;37.20;25.48;;;;;;;;;;10021298;28;20108;-68
2022/11/02 19:57:20;;;;;;;45.47;28.38;;;;;;;;;;10021680;28;20058;-67
2022/11/02 20:02:14;;;;;;;41.63;27.55;;;;;;;;;;10020140;28;20078;-67
2022/11/02 20:07:09;;;;;;;43.30;28.77;;;;;;;;;;10022956;28;20069;-67
2022/11/02 20:12:06;;;;;;;54.85;26.95;;;;;;;;;;10016764;28;20053;-67
2022/11/02 20:16:59;;;;;;;43.03;26.83;;;;;;;;;;10029004;28;20141;-65
2022/11/02 20:22:12;;;;;;;42.38;26.52;;;;;;;;;;10016341;28;20073;-69
2022/11/02 20:27:06;;;;;;;39.90;25.95;;;;;;;;;;10021603;28;20050;-68
2022/11/02 20:32:00;;;;;;;38.20;25.55;;;;;;;;;;10020361;28;20076;-70
2022/11/02 20:36:54;;;;;;;39.53;28.23;;;;;;;;;;10016638;28;20063;-70
2022/11/02 20:41:54;;;;;;;39.40;25.50;;;;;;;;;;10015924;28;20138;-71
2022/11/02 20:46:47;;;;;;;39.08;27.95;;;;;;;;;;10021230;28;20050;-72
2022/11/02 20:51:45;;;;;;;44.95;28.75;;;;;;;;;;10015890;28;20049;-73
2022/11/02 20:56:39;;;;;;;42.78;27.42;;;;;;;;;;10016241;28;20799;-72
2022/11/02 21:01:33;;;;;;;44.03;27.33;;;;;;;;;;10018511;28;20060;-71
2022/11/02 21:06:27;;;;;;;46.20;30.30;;;;;;;;;;10025376;28;20058;-72
2022/11/02 21:16:32;;;;;;;44.05;27.48;;;;;;;;;;10027055;28;20077;-73
2022/11/02 21:21:26;;;;;;;38.83;26.88;;;;;;;;;;10026593;28;20056;-73
2022/11/02 21:26:19;;;;;;;40.47;26.90;;;;;;;;;;10026578;28;20362;-72
2022/11/02 21:31:19;;;;;;;42.75;25.63;;;;;;;;;;10026293;28;20045;-72
2022/11/02 21:36:14;;;;;;;42.63;27.90;;;;;;;;;;10022172;28;20064;-72
2022/11/02 21:41:08;;;;;;;39.78;26.55;;;;;;;;;;10025788;28;20085;-73
2022/11/02 21:46:01;;;;;;;34.70;26.00;;;;;;;;;;10025868;28;20108;-74
2022/11/02 21:51:05;;;;;;;38.75;25.35;;;;;;;;;;10012157;28;20054;-73
2022/11/02 21:56:03;;;;;;;36.90;26.00;;;;;;;;;;10017200;28;20054;-71
2022/11/02 22:06:15;;;;;;;36.08;24.42;;;;;;;;;;10022256;28;20657;-71
2022/11/02 22:11:20;;;;;;;36.60;24.77;;;;;;;;;;10022466;28;20057;-72
2022/11/02 22:16:26;;;;;;;36.53;26.55;;;;;;;;;;10022329;28;20058;-74
2022/11/02 22:21:20;;;;;;;45.40;29.42;;;;;;;;;;10023681;28;20129;-74
2022/11/02 22:26:16;;;;;;;34.33;25.25;;;;;;;;;;10021940;28;20053;-73
2022/11/02 22:31:14;;;;;;;41.67;26.90;;;;;;;;;;10023185;28;20100;-73
2022/11/02 22:36:08;;;;;;;37.65;26.00;;;;;;;;;;10023181;28;20541;-73
2022/11/02 22:41:02;;;;;;;40.60;27.27;;;;;;;;;;10017663;28;20514;-73
2022/11/02 22:46:19;;;;;;;42.63;26.25;;;;;;;;;;10018633;28;20034;-73
2022/11/02 22:51:13;;;;;;;40.72;27.15;;;;;;;;;;10022702;28;20049;-74
2022/11/02 22:56:10;;;;;;;41.92;27.38;;;;;;;;;;10024221;28;20493;-74
2022/11/02 23:01:04;;;;;;;40.45;28.42;;;;;;;;;;10012938;28;20144;-73
2022/11/02 23:05:59;;;;;;;47.42;28.80;;;;;;;;;;10030040;28;20096;-73
2022/11/02 23:16:20;;;;;;;44.17;28.17;;;;;;;;;;10031888;28;20066;-73
2022/11/02 23:21:14;;;;;;;53.55;30.15;;;;;;;;;;10031374;28;20054;-73
2022/11/02 23:26:09;;;;;;;54.13;30.88;;;;;;;;;;10030642;28;20475;-73
2022/11/02 23:36:37;;;;;;;51.45;30.77;;;;;;;;;;9996254;28;20058;-74
2022/11/02 23:41:33;;;;;;;58.08;31.42;;;;;;;;;;10006580;28;20049;-73
2022/11/02 23:46:26;;;;;;;49.35;30.02;;;;;;;;;;10030506;28;20074;-73
2022/11/02 23:56:44;;;;;;;49.35;29.77;;;;;;;;;;10030352;28;20049;-73
